createdAt,value
2022-10-18T00:02:40.101Z,101172.78
2022-10-18T00:07:38.918Z,101183.34
2022-10-18T00:12:38.471Z,101183.00
2022-10-18T00:17:38.738Z,101192.44
2022-10-18T00:22:39.817Z,101185.63
2022-10-18T00:27:38.531Z,101196.19
2022-10-18T00:32:38.716Z,101195.88
2022-10-18T00:37:37.476Z,101205.19
2022-10-18T00:42:37.713Z,101198.81
2022-10-18T00:47:36.820Z,101194.84
2022-10-18T00:52:43.480Z,101188.25
2022-10-18T00:57:43.992Z,101188.59
2022-10-18T01:02:44.979Z,101183.28
2022-10-18T01:07:55.428Z,101179.97
2022-10-18T01:13:03.246Z,101185.69
2022-10-18T01:18:26.165Z,101194.91
2022-10-18T01:23:33.997Z,101187.91
2022-10-18T01:28:39.306Z,101186.09
2022-10-18T01:39:05.923Z,101192.50
2022-10-18T01:44:09.563Z,101185.81
2022-10-18T01:49:08.526Z,101195.06
2022-10-18T01:54:08.914Z,101201.38
2022-10-18T01:59:20.796Z,101197.25
2022-10-18T02:04:46.890Z,101197.25
2022-10-18T02:09:52.986Z,101199.19
2022-10-18T02:14:53.225Z,101195.66
2022-10-18T02:19:55.888Z,101191.28
2022-10-18T02:24:58.946Z,101191.19
2022-10-18T02:29:58.602Z,101204.56
2022-10-18T02:35:25.912Z,101193.34
2022-10-18T02:40:26.478Z,101197.50
2022-10-18T02:45:26.511Z,101198.31
2022-10-18T02:50:25.140Z,101203.41
2022-10-18T02:55:23.849Z,101210.75
2022-10-18T03:00:22.875Z,101201.78
2022-10-18T03:05:21.493Z,101211.72
2022-10-18T03:10:20.465Z,101212.78
2022-10-18T03:15:19.183Z,101213.50
2022-10-18T03:20:17.948Z,101208.03
2022-10-18T03:25:16.667Z,101205.13
2022-10-18T03:30:16.077Z,101213.63
2022-10-18T03:35:14.794Z,101212.31
2022-10-18T03:40:13.494Z,101214.81
2022-10-18T03:45:12.105Z,101217.75
2022-10-18T03:50:10.811Z,101212.91
2022-10-18T03:55:09.554Z,101210.91
2022-10-18T04:00:08.704Z,101210.75
2022-10-18T04:05:16.397Z,101210.19
2022-10-18T04:10:15.108Z,101204.63
2022-10-18T04:15:13.911Z,101205.78
2022-10-18T04:20:13.047Z,101206.72
2022-10-18T04:25:11.874Z,101210.97
2022-10-18T04:30:11.221Z,101212.69
2022-10-18T04:35:10.226Z,101205.97
2022-10-18T04:40:09.812Z,101200.59
2022-10-18T04:45:09.414Z,101198.19
2022-10-18T04:50:08.453Z,101211.16
2022-10-18T04:55:07.411Z,101215.97
2022-10-18T05:00:07.139Z,101213.88
2022-10-18T05:05:09.125Z,101211.91
2022-10-18T05:10:10.748Z,101211.34
2022-10-18T05:15:10.164Z,101195.06
2022-10-18T05:20:09.593Z,101191.72
2022-10-18T05:25:09.223Z,101198.31
2022-10-18T05:30:08.248Z,101202.75
2022-10-18T05:35:07.402Z,101200.06
2022-10-18T05:40:06.650Z,101198.03
2022-10-18T05:45:05.749Z,101192.53
2022-10-18T05:50:04.756Z,101197.03
2022-10-18T05:55:03.713Z,101193.25
2022-10-18T06:00:02.671Z,101185.69
2022-10-18T06:05:10.560Z,101175.53
2022-10-18T06:10:09.803Z,101140.75
2022-10-18T06:15:08.751Z,101153.41
2022-10-18T06:20:08.445Z,101157.16
2022-10-18T06:25:07.398Z,101171.66
2022-10-18T06:30:06.813Z,101179.31
2022-10-18T06:35:05.954Z,101157.91
2022-10-18T06:40:05.949Z,101138.72
2022-10-18T06:45:05.059Z,101165.13
2022-10-18T06:50:03.972Z,101175.56
2022-10-18T06:55:06.046Z,101166.25
2022-10-18T07:00:08.131Z,101158.50
2022-10-18T07:05:11.156Z,101168.53
2022-10-18T07:10:13.010Z,101156.66
2022-10-18T07:15:12.067Z,101154.91
2022-10-18T07:20:10.750Z,101151.84
2022-10-18T07:25:09.800Z,101168.13
2022-10-18T07:30:11.033Z,101167.94
2022-10-18T07:40:09.200Z,101157.22
2022-10-18T07:45:08.681Z,101162.22
2022-10-18T07:50:07.806Z,101165.47
2022-10-18T07:55:06.865Z,101168.41
2022-10-18T08:00:06.433Z,101162.53
2022-10-18T08:05:10.207Z,101155.03
2022-10-18T08:10:09.360Z,101162.50
2022-10-18T08:15:08.694Z,101155.38
2022-10-18T08:20:12.707Z,101160.34
2022-10-18T08:25:25.708Z,101156.53
2022-10-18T08:30:24.546Z,101137.72
2022-10-18T08:35:23.386Z,101120.88
2022-10-18T08:40:22.275Z,101109.19
2022-10-18T08:45:30.542Z,101107.69
2022-10-18T08:50:41.235Z,101099.03
2022-10-18T08:55:46.201Z,101088.66
2022-10-18T09:01:06.103Z,101088.31
2022-10-18T09:06:28.495Z,101094.84
2022-10-18T09:11:33.502Z,101094.34
2022-10-18T09:16:44.714Z,101085.69
2022-10-18T09:21:55.078Z,101067.44
2022-10-18T09:27:01.839Z,101063.25
2022-10-18T09:32:06.478Z,101054.34
2022-10-18T09:37:12.188Z,101051.56
2022-10-18T09:42:26.936Z,101038.75
2022-10-18T09:47:42.517Z,101046.19
2022-10-18T09:52:51.870Z,101036.44
2022-10-18T09:57:56.555Z,101033.53
2022-10-18T10:02:55.792Z,101025.59
2022-10-18T10:07:59.951Z,101014.19
2022-10-18T10:13:04.160Z,101000.75
2022-10-18T10:18:21.850Z,101014.03
2022-10-18T10:23:25.163Z,101003.50
2022-10-18T10:28:28.842Z,100999.44
2022-10-18T10:33:37.114Z,101000.22
2022-10-18T10:38:35.890Z,101002.16
2022-10-18T10:43:39.174Z,100998.91
2022-10-18T10:49:27.936Z,101048.09
2022-10-18T10:54:23.412Z,101094.47
2022-10-18T10:59:26.222Z,101109.06
2022-10-18T11:04:28.415Z,101120.91
2022-10-18T11:09:48.075Z,101120.69
2022-10-18T11:14:52.828Z,101105.38
2022-10-18T11:20:05.158Z,101107.75
2022-10-18T11:25:05.804Z,101109.88
2022-10-18T11:30:29.722Z,101120.75
2022-10-18T11:35:40.917Z,101120.63
2022-10-18T11:40:42.342Z,101135.16
2022-10-18T11:45:52.676Z,101123.22
2022-10-18T11:51:05.509Z,101124.25
2022-10-18T11:56:22.929Z,101130.38
2022-10-18T12:01:40.879Z,101147.63
2022-10-18T12:06:43.127Z,101135.22
2022-10-18T12:11:53.543Z,101154.06
2022-10-18T12:17:27.846Z,101144.69
2022-10-18T12:22:28.672Z,101152.72
2022-10-18T12:27:53.632Z,101154.97
2022-10-18T12:33:08.715Z,101170.59
2022-10-18T12:38:23.867Z,101173.19
2022-10-18T12:43:36.924Z,101174.00
2022-10-18T12:48:48.859Z,101161.06
2022-10-18T12:53:55.062Z,101141.38
2022-10-18T12:59:15.809Z,101155.56
2022-10-18T13:04:35.253Z,101165.28
2022-10-18T13:10:12.889Z,101176.16
2022-10-18T13:15:33.436Z,101182.38
2022-10-18T13:20:50.826Z,101184.25
2022-10-18T13:26:44.776Z,101183.34
2022-10-18T13:32:02.716Z,101182.72
2022-10-18T13:37:02.709Z,101184.41
2022-10-18T13:42:01.466Z,101184.88
2022-10-18T13:47:00.240Z,101182.38
2022-10-18T13:52:20.766Z,101182.44
2022-10-18T13:57:30.177Z,101176.09
2022-10-18T14:02:51.554Z,101173.38
2022-10-18T14:07:58.359Z,101170.59
2022-10-18T14:13:02.591Z,101163.75
2022-10-18T14:18:15.416Z,101161.88
2022-10-18T14:23:21.335Z,101161.59
2022-10-18T14:28:31.397Z,101153.97
2022-10-18T14:33:33.028Z,101154.78
2022-10-18T14:38:32.232Z,101156.84
2022-10-18T14:43:30.937Z,101167.44
2022-10-18T14:48:29.662Z,101184.13
2022-10-18T14:53:37.428Z,101196.19
2022-10-18T14:58:37.984Z,101205.19
2022-10-18T15:03:36.957Z,101207.63
2022-10-18T15:08:37.770Z,101191.38
2022-10-18T15:13:51.982Z,101192.13
2022-10-18T15:19:03.984Z,101191.44
2022-10-18T15:24:20.609Z,101186.78
2022-10-18T15:29:20.768Z,101194.44
2022-10-18T15:34:27.744Z,101193.50
2022-10-18T15:39:29.397Z,101193.16
2022-10-18T15:44:32.420Z,101197.09
2022-10-18T15:49:46.609Z,101202.63
2022-10-18T15:54:45.397Z,101212.81
2022-10-18T15:59:58.191Z,101225.50
2022-10-18T16:04:59.505Z,101224.88
2022-10-18T16:09:58.327Z,101230.03
2022-10-18T16:14:57.011Z,101226.63
2022-10-18T16:19:55.943Z,101229.19
2022-10-18T16:24:54.563Z,101239.59
2022-10-18T16:29:53.275Z,101242.63
2022-10-18T16:34:52.014Z,101238.84
2022-10-18T16:39:50.927Z,101243.47
2022-10-18T16:44:49.818Z,101256.00
2022-10-18T16:49:49.214Z,101253.81
2022-10-18T16:54:47.982Z,101260.16
2022-10-18T16:59:46.705Z,101260.88
2022-10-18T17:04:45.364Z,101261.53
2022-10-18T17:09:44.129Z,101266.00
2022-10-18T17:14:42.849Z,101268.97
2022-10-18T17:19:41.558Z,101263.84
2022-10-18T17:24:40.242Z,101265.53
2022-10-18T17:29:40.990Z,101273.69
2022-10-18T17:39:38.436Z,101275.81
2022-10-18T17:44:37.228Z,101269.66
2022-10-18T17:49:36.335Z,101274.72
2022-10-18T17:54:35.016Z,101265.88
2022-10-18T17:59:33.672Z,101271.00
2022-10-18T18:04:32.362Z,101282.03
2022-10-18T18:09:31.519Z,101272.84
2022-10-18T18:14:30.256Z,101273.38
2022-10-18T18:19:29.117Z,101269.59
2022-10-18T18:24:28.391Z,101275.34
2022-10-18T18:29:27.958Z,101275.88
2022-10-18T18:34:26.710Z,101273.97
2022-10-18T18:39:29.646Z,101281.13
2022-10-18T18:44:28.804Z,101281.56
2022-10-18T18:49:27.990Z,101277.38
2022-10-18T18:54:28.712Z,101276.50
2022-10-18T18:59:27.527Z,101275.28
2022-10-18T19:04:26.481Z,101273.72
2022-10-18T19:09:27.448Z,101268.34
2022-10-18T19:14:26.429Z,101274.97
2022-10-18T19:19:27.113Z,101272.25
2022-10-18T19:24:27.916Z,101280.72
2022-10-18T19:29:30.607Z,101291.38
2022-10-18T19:34:30.605Z,101288.50
2022-10-18T19:39:31.446Z,101293.53
2022-10-18T19:44:32.388Z,101284.09
2022-10-18T19:49:31.355Z,101289.19
2022-10-18T19:54:30.228Z,101294.03
2022-10-18T19:59:29.286Z,101300.16
2022-10-18T20:04:28.292Z,101295.69
2022-10-18T20:09:27.166Z,101293.03
2022-10-18T20:14:26.008Z,101295.84
2022-10-18T20:19:24.702Z,101299.88
2022-10-18T20:24:23.656Z,101294.31
2022-10-18T20:29:25.221Z,101295.72
2022-10-18T20:34:26.001Z,101289.81
2022-10-18T20:39:24.890Z,101297.19
2022-10-18T20:44:25.407Z,101288.53
2022-10-18T20:49:24.169Z,101292.59
2022-10-18T20:54:22.886Z,101297.84
2022-10-18T20:59:21.602Z,101297.41
2022-10-18T21:04:20.367Z,101315.13
2022-10-18T21:09:20.050Z,101309.34
2022-10-18T21:14:21.422Z,101304.81
2022-10-18T21:19:25.437Z,101288.78
2022-10-18T21:24:25.417Z,101294.56
2022-10-18T21:29:27.394Z,101297.41
2022-10-18T21:34:26.569Z,101298.91
2022-10-18T21:39:25.529Z,101293.34
2022-10-18T21:44:24.295Z,101293.13
2022-10-18T21:49:25.103Z,101289.22
2022-10-18T21:54:23.843Z,101300.00
2022-10-18T21:59:22.631Z,101307.38
2022-10-18T22:04:24.085Z,101307.84
2022-10-18T22:09:23.092Z,101296.88
2022-10-18T22:14:22.468Z,101300.38
2022-10-18T22:19:21.349Z,101293.84
2022-10-18T22:24:20.268Z,101283.84
2022-10-18T22:29:21.237Z,101285.03
2022-10-18T22:34:28.896Z,101283.03
2022-10-18T22:39:27.712Z,101291.41
2022-10-18T22:44:26.641Z,101288.25
2022-10-18T22:49:25.369Z,101289.28
2022-10-18T22:54:24.015Z,101290.59
2022-10-18T22:59:23.139Z,101287.97
2022-10-18T23:04:21.976Z,101279.69
2022-10-18T23:09:20.715Z,101293.19
2022-10-18T23:14:19.479Z,101280.63
2022-10-18T23:19:18.234Z,101284.66
2022-10-18T23:24:16.930Z,101291.88
2022-10-18T23:29:15.949Z,101288.47
2022-10-18T23:34:15.265Z,101294.38
2022-10-18T23:39:13.958Z,101307.38
2022-10-18T23:44:12.654Z,101293.78
2022-10-18T23:49:11.332Z,101299.91
2022-10-18T23:54:10.077Z,101290.69
2022-10-18T23:59:08.733Z,101294.59
